KEKM

Elkhart Municipal Airport

Elkhart, Indiana, USA
METAR KEKM 162248Z 08003KT 10SM CLR 01/M03 A3000 RMK LAST
Observed Flight Rules
Dec-16 @ 22:48 UTC (8 hours ago) Visual Flight Rules
Wind Visibility Clouds
80° at 3 knots 10 miles
  • Clear skies
Temperatures Readings
Current 1°C / 34°F
Dewpoint -3°C / 27°F
Humidity 75%
Altimeter 30" Hg
Pressure 1016 hPa
Elevation 237
METAR KEKM 162248Z 08003KT 10SM CLR 01/M03 A3000 RMK LAST
Observed Flight Rules
Dec-16 @ 22:48 UTC
(8 hours ago)
VFR
Wind Visibility
80° at 3 knots 10 miles
Clouds
  • Clear skies
Temperature Dewpoint
1°C / 34°F -3°C / 27°F
Humidity Altimeter Pressure
75% 30" Hg 1016 hPa